createdAt,value
2023-03-06T00:01:29.398Z,60.83
2023-03-06T00:06:34.414Z,56.40
2023-03-06T00:11:38.189Z,56.37
2023-03-06T00:16:41.997Z,56.90
2023-03-06T00:21:46.887Z,62.10
2023-03-06T00:26:50.989Z,47.53
2023-03-06T00:31:55.009Z,45.10
2023-03-06T00:36:59.880Z,40.33
2023-03-06T00:42:03.273Z,39.50
2023-03-06T00:47:07.249Z,35.20
2023-03-06T00:52:12.547Z,28.07
2023-03-06T00:57:16.258Z,30.40
2023-03-06T01:02:19.788Z,26.73
2023-03-06T01:07:27.324Z,31.80
2023-03-06T01:12:30.738Z,24.50
2023-03-06T01:17:34.270Z,25.33
2023-03-06T01:22:40.697Z,19.43
2023-03-06T01:27:44.472Z,18.13
2023-03-06T01:32:48.288Z,17.30
2023-03-06T01:37:53.107Z,18.43
2023-03-06T01:42:56.575Z,21.53
2023-03-06T01:48:00.119Z,18.40
2023-03-06T01:53:06.188Z,18.80
2023-03-06T01:58:14.039Z,19.07
2023-03-06T02:03:21.831Z,19.80
2023-03-06T02:08:28.263Z,22.27
2023-03-06T02:13:32.448Z,17.60
2023-03-06T02:18:36.937Z,19.10
2023-03-06T02:23:52.534Z,18.53
2023-03-06T02:28:59.372Z,20.40
2023-03-06T02:34:06.924Z,19.90
2023-03-06T02:39:10.316Z,19.43
2023-03-06T02:44:16.344Z,17.80
2023-03-06T02:49:19.741Z,19.20
2023-03-06T02:54:23.117Z,17.57
2023-03-06T02:59:28.269Z,17.17
2023-03-06T03:04:32.990Z,18.07
2023-03-06T03:09:37.852Z,18.20
2023-03-06T03:14:42.693Z,19.97
2023-03-06T03:19:46.282Z,14.10
2023-03-06T03:24:49.999Z,18.80
2023-03-06T03:29:55.292Z,20.50
2023-03-06T03:34:59.105Z,16.20
2023-03-06T03:40:05.246Z,16.67
2023-03-06T03:45:11.510Z,18.13
2023-03-06T03:50:15.348Z,18.30
2023-03-06T03:55:19.676Z,24.03
2023-03-06T04:00:24.996Z,18.20
2023-03-06T04:05:38.607Z,22.23
2023-03-06T04:10:44.326Z,20.73
2023-03-06T04:15:52.634Z,20.00
2023-03-06T04:20:57.883Z,18.17
2023-03-06T04:26:01.606Z,19.30
2023-03-06T04:31:07.128Z,18.40
2023-03-06T04:36:28.402Z,20.80
2023-03-06T04:41:35.784Z,18.83
2023-03-06T04:46:40.676Z,20.93
2023-03-06T04:51:44.079Z,16.30
2023-03-06T04:56:47.512Z,17.13
2023-03-06T05:01:52.413Z,19.90
2023-03-06T05:06:55.837Z,18.73
2023-03-06T05:11:59.550Z,17.93
2023-03-06T05:17:04.592Z,17.03
2023-03-06T05:22:08.481Z,18.00
2023-03-06T05:27:12.426Z,19.80
2023-03-06T05:32:17.611Z,16.97
2023-03-06T05:37:23.148Z,18.13
2023-03-06T05:42:28.630Z,18.90
2023-03-06T05:47:34.051Z,19.37
2023-03-06T05:52:37.560Z,16.33
2023-03-06T05:57:41.625Z,17.83
2023-03-06T06:02:46.945Z,14.97
2023-03-06T06:07:50.341Z,15.63
2023-03-06T06:12:53.979Z,16.97
2023-03-06T06:17:59.381Z,21.57
2023-03-06T06:23:03.337Z,15.53
2023-03-06T06:28:06.929Z,16.07
2023-03-06T06:33:11.633Z,15.10
2023-03-06T06:38:15.245Z,12.87
2023-03-06T06:43:18.631Z,13.77
2023-03-06T06:48:23.419Z,14.27
2023-03-06T06:53:28.292Z,13.57
2023-03-06T06:58:31.642Z,13.30
2023-03-06T07:03:36.524Z,13.93
2023-03-06T07:08:39.958Z,13.03
2023-03-06T07:13:43.521Z,13.77
2023-03-06T07:18:48.339Z,11.13
2023-03-06T07:23:51.940Z,10.90
2023-03-06T07:28:55.762Z,13.37
2023-03-06T07:34:01.910Z,11.80
2023-03-06T07:39:06.646Z,10.50
2023-03-06T07:44:10.067Z,14.17
2023-03-06T07:49:15.187Z,12.13
2023-03-06T07:54:18.849Z,12.43
2023-03-06T07:59:22.252Z,13.10
2023-03-06T08:04:29.013Z,12.97
2023-03-06T08:09:33.197Z,14.90
2023-03-06T08:14:37.109Z,10.07
2023-03-06T08:19:41.922Z,18.40
2023-03-06T08:24:45.467Z,11.37
2023-03-06T08:29:48.856Z,13.80
2023-03-06T08:34:54.005Z,13.57
2023-03-06T08:39:57.689Z,13.30
2023-03-06T08:45:01.151Z,15.97
2023-03-06T08:50:07.027Z,15.80
2023-03-06T08:55:11.108Z,13.17
2023-03-06T09:00:15.666Z,15.10
2023-03-06T09:05:20.904Z,15.33
2023-03-06T09:10:26.306Z,16.07
2023-03-06T09:15:29.710Z,12.83
2023-03-06T09:20:34.501Z,15.00
2023-03-06T09:25:37.970Z,14.23
2023-03-06T09:30:41.945Z,15.10
2023-03-06T09:35:50.977Z,15.97
2023-03-06T09:41:04.470Z,15.83
2023-03-06T09:46:14.657Z,19.87
2023-03-06T09:51:26.162Z,16.70
2023-03-06T09:56:34.335Z,16.90
2023-03-06T10:01:42.416Z,14.77
2023-03-06T10:06:51.838Z,16.80
2023-03-06T10:12:01.375Z,15.27
2023-03-06T10:17:05.359Z,17.93
2023-03-06T10:22:21.208Z,16.63
2023-03-06T10:27:37.375Z,20.57
2023-03-06T10:32:49.380Z,16.17
2023-03-06T10:38:02.122Z,19.70
2023-03-06T10:43:12.480Z,19.47
2023-03-06T10:48:21.082Z,17.70
2023-03-06T10:53:29.506Z,20.83
2023-03-06T10:58:34.140Z,19.57
2023-03-06T11:03:38.334Z,19.13
2023-03-06T11:08:45.203Z,15.93
2023-03-06T11:13:58.475Z,17.10
2023-03-06T11:19:05.427Z,16.67
2023-03-06T11:24:18.659Z,19.70
2023-03-06T11:29:38.805Z,21.40
2023-03-06T11:34:50.602Z,18.03
2023-03-06T11:40:04.804Z,21.67
2023-03-06T11:45:23.406Z,16.93
2023-03-06T11:50:35.150Z,21.50
2023-03-06T11:55:51.957Z,21.70
2023-03-06T12:01:04.676Z,20.70
2023-03-06T12:06:17.696Z,21.83
2023-03-06T12:11:27.228Z,23.10
2023-03-06T12:16:42.348Z,22.20
2023-03-06T12:21:59.683Z,24.63
2023-03-06T12:27:15.101Z,24.10
2023-03-06T12:32:29.512Z,26.57
2023-03-06T12:37:47.624Z,26.27
2023-03-06T12:43:19.891Z,26.77
2023-03-06T12:48:29.329Z,29.13
2023-03-06T12:53:35.697Z,27.57
2023-03-06T12:58:51.763Z,24.53
2023-03-06T13:04:05.155Z,25.27
2023-03-06T13:09:25.222Z,27.33
2023-03-06T13:14:42.261Z,26.30
2023-03-06T13:20:30.381Z,28.97
2023-03-06T13:25:49.395Z,28.07
2023-03-06T13:30:54.469Z,26.27
2023-03-06T13:35:59.100Z,26.33
2023-03-06T13:41:37.685Z,29.17
2023-03-06T13:46:42.604Z,26.80
2023-03-06T13:52:07.231Z,28.23
2023-03-06T13:57:39.243Z,32.00
2023-03-06T14:02:58.665Z,24.97
2023-03-06T14:08:11.275Z,28.57
2023-03-06T14:13:21.377Z,29.53
2023-03-06T14:18:31.215Z,32.37
2023-03-06T14:23:38.211Z,29.03
2023-03-06T14:28:41.693Z,28.53
2023-03-06T14:33:52.911Z,32.27
2023-03-06T14:38:59.449Z,29.07
2023-03-06T14:44:18.247Z,28.43
2023-03-06T14:49:25.415Z,30.07
2023-03-06T14:54:31.007Z,33.70
2023-03-06T14:59:41.607Z,29.53
2023-03-06T15:04:49.504Z,29.40
2023-03-06T15:09:55.195Z,31.73
2023-03-06T15:15:00.309Z,29.57
2023-03-06T15:20:08.200Z,28.93
2023-03-06T15:25:26.670Z,29.93
2023-03-06T15:30:32.509Z,33.97
2023-03-06T15:35:38.416Z,29.37
2023-03-06T15:40:42.237Z,25.27
2023-03-06T15:45:46.000Z,28.63
2023-03-06T15:50:51.115Z,23.67
2023-03-06T15:55:54.706Z,22.70
2023-03-06T16:00:58.264Z,30.93
2023-03-06T16:06:03.406Z,24.33
2023-03-06T16:11:06.789Z,26.23
2023-03-06T16:16:17.239Z,36.53
2023-03-06T16:21:22.011Z,44.27
2023-03-06T16:26:30.882Z,42.63
2023-03-06T16:31:34.309Z,35.27
2023-03-06T16:36:39.189Z,32.53
2023-03-06T16:41:43.035Z,33.67
2023-03-06T16:46:48.431Z,33.03
2023-03-06T16:51:54.752Z,35.13
2023-03-06T16:56:58.427Z,41.87
2023-03-06T17:02:02.301Z,40.23
2023-03-06T17:07:08.311Z,33.10
2023-03-06T17:12:11.996Z,49.83
2023-03-06T17:17:15.364Z,40.27
2023-03-06T17:22:21.660Z,45.50
2023-03-06T17:27:27.612Z,41.17
2023-03-06T17:32:32.348Z,37.10
2023-03-06T17:37:37.441Z,48.30
2023-03-06T17:42:41.201Z,44.33
2023-03-06T17:47:45.819Z,32.00
2023-03-06T17:52:52.138Z,30.03
2023-03-06T17:57:55.568Z,35.20
2023-03-06T18:02:59.112Z,38.53
2023-03-06T18:08:04.293Z,32.53
2023-03-06T18:13:09.080Z,52.13
2023-03-06T18:18:12.795Z,64.27
2023-03-06T18:23:17.970Z,53.80
2023-03-06T18:28:21.685Z,49.07
2023-03-06T18:33:27.741Z,52.23
2023-03-06T18:38:32.531Z,54.53
2023-03-06T18:43:37.604Z,43.93
2023-03-06T18:48:41.382Z,40.53
2023-03-06T18:53:46.412Z,35.50
2023-03-06T18:58:50.581Z,38.67
2023-03-06T19:03:54.255Z,47.90
2023-03-06T19:09:01.548Z,48.07
2023-03-06T19:14:05.552Z,32.10
2023-03-06T19:19:09.552Z,35.23
2023-03-06T19:24:14.824Z,30.00
2023-03-06T19:29:18.585Z,35.10
2023-03-06T19:34:23.534Z,26.77
2023-03-06T19:39:28.415Z,26.63
2023-03-06T19:44:31.789Z,30.80
2023-03-06T19:49:35.529Z,25.90
2023-03-06T19:54:40.506Z,25.37
2023-03-06T19:59:43.955Z,26.70
2023-03-06T20:04:47.918Z,29.00
2023-03-06T20:09:53.104Z,22.80
2023-03-06T20:14:56.502Z,28.27
2023-03-06T20:19:59.893Z,25.20
2023-03-06T20:25:04.921Z,24.73
2023-03-06T20:30:09.784Z,25.80
2023-03-06T20:35:13.566Z,25.20
2023-03-06T20:40:19.620Z,21.53
2023-03-06T20:45:24.159Z,22.63
2023-03-06T20:50:27.720Z,23.37
2023-03-06T20:55:32.560Z,22.23
2023-03-06T21:00:35.935Z,21.17
2023-03-06T21:05:39.329Z,28.07
2023-03-06T21:10:46.251Z,26.20
2023-03-06T21:15:49.917Z,28.20
2023-03-06T21:20:53.340Z,26.40
2023-03-06T21:25:58.553Z,24.50
2023-03-06T21:31:02.716Z,27.73
2023-03-06T21:36:06.793Z,26.77
2023-03-06T21:41:14.587Z,21.87
2023-03-06T21:46:18.027Z,25.13
2023-03-06T21:51:23.862Z,22.00
2023-03-06T21:56:31.075Z,23.80
2023-03-06T22:01:34.525Z,23.30
2023-03-06T22:06:39.982Z,24.10
2023-03-06T22:11:45.063Z,22.70
2023-03-06T22:16:48.795Z,21.17
2023-03-06T22:21:52.226Z,23.50
2023-03-06T22:26:56.976Z,21.27
2023-03-06T22:32:00.441Z,21.10
2023-03-06T22:37:04.248Z,22.53
2023-03-06T22:42:09.435Z,21.37
2023-03-06T22:47:12.857Z,21.73
2023-03-06T22:52:19.602Z,18.17
2023-03-06T22:57:24.497Z,17.03
2023-03-06T23:02:33.077Z,20.97
2023-03-06T23:07:36.785Z,20.40
2023-03-06T23:12:42.355Z,21.20
2023-03-06T23:18:04.642Z,18.97
2023-03-06T23:23:27.283Z,21.00
2023-03-06T23:28:32.084Z,18.07
2023-03-06T23:33:36.995Z,19.20
2023-03-06T23:38:40.981Z,18.03
2023-03-06T23:43:46.193Z,17.77
2023-03-06T23:48:49.603Z,17.10
2023-03-06T23:53:58.133Z,19.40
2023-03-06T23:59:02.895Z,16.47
